createdAt,value
2023-04-13T00:01:01.775Z,99344.41
2023-04-13T00:03:34.396Z,99316.41
2023-04-13T00:06:04.260Z,99348.69
2023-04-13T00:08:36.029Z,99278.00
2023-04-13T00:11:07.821Z,99325.50
2023-04-13T00:13:43.121Z,99331.38
2023-04-13T00:16:14.024Z,99329.44
2023-04-13T00:18:46.356Z,99329.38
2023-04-13T00:21:17.320Z,99320.78
2023-04-13T00:23:47.460Z,99320.56
2023-04-13T00:26:20.775Z,99312.00
2023-04-13T00:28:50.568Z,99284.59
2023-04-13T00:31:21.367Z,99329.81
2023-04-13T00:33:53.740Z,99322.06
2023-04-13T00:36:24.621Z,99311.88
2023-04-13T00:38:54.817Z,99314.50
2023-04-13T00:41:24.609Z,99293.34
2023-04-13T00:43:54.851Z,99294.22
2023-04-13T00:46:25.265Z,99298.34
2023-04-13T00:48:58.357Z,99295.78
2023-04-13T00:51:30.291Z,99233.81
2023-04-13T00:54:00.894Z,99283.03
2023-04-13T00:56:31.090Z,99281.38
2023-04-13T00:59:00.829Z,99299.22
2023-04-13T01:01:30.636Z,99281.31
2023-04-13T01:04:03.081Z,99294.16
2023-04-13T01:06:42.172Z,99296.63
2023-04-13T01:09:14.297Z,99277.06
2023-04-13T01:11:50.768Z,99293.28
2023-04-13T01:14:27.507Z,99291.66
2023-04-13T01:17:06.038Z,99300.03
2023-04-13T01:19:52.461Z,99281.38
2023-04-13T01:22:25.700Z,99293.31
2023-04-13T01:25:12.277Z,99288.25
2023-04-13T01:27:51.848Z,99266.91
2023-04-13T01:30:26.278Z,99291.59
2023-04-13T01:32:59.590Z,99304.16
2023-04-13T01:35:32.106Z,99293.72
2023-04-13T01:38:02.604Z,99297.22
2023-04-13T01:40:35.106Z,99297.41
2023-04-13T01:43:07.451Z,99287.16
2023-04-13T01:45:53.809Z,99275.06
2023-04-13T01:48:31.768Z,99278.69
2023-04-13T01:51:11.337Z,99262.69
2023-04-13T01:53:51.215Z,99263.50
2023-04-13T01:56:23.339Z,99271.16
2023-04-13T01:59:02.618Z,99274.53
2023-04-13T02:01:33.402Z,99274.38
2023-04-13T02:04:03.910Z,99274.44
2023-04-13T02:06:35.215Z,99273.59
2023-04-13T02:09:08.459Z,99277.13
2023-04-13T02:11:38.871Z,99270.34
2023-04-13T02:14:12.822Z,99222.81
2023-04-13T02:16:43.883Z,99268.88
2023-04-13T02:19:16.763Z,99274.75
2023-04-13T02:21:46.627Z,99277.50
2023-04-13T02:24:17.149Z,99271.59
2023-04-13T02:26:48.084Z,99276.66
2023-04-13T02:29:20.468Z,99288.63
2023-04-13T02:31:50.648Z,99284.41
2023-04-13T02:34:20.511Z,99264.91
2023-04-13T02:36:50.300Z,99287.00
2023-04-13T02:39:21.103Z,99288.78
2023-04-13T02:41:51.929Z,99283.66
2023-04-13T02:44:27.297Z,99262.50
2023-04-13T02:47:01.568Z,99273.50
2023-04-13T02:49:31.502Z,99282.00
2023-04-13T02:52:13.377Z,99247.97
2023-04-13T02:54:54.426Z,99298.97
2023-04-13T02:57:27.311Z,99292.13
2023-04-13T03:00:01.776Z,99262.22
2023-04-13T03:02:43.262Z,99285.25
2023-04-13T03:05:13.646Z,99268.25
2023-04-13T03:07:43.515Z,99240.13
2023-04-13T03:10:14.261Z,99268.25
2023-04-13T03:12:45.749Z,99283.47
2023-04-13T03:15:18.978Z,99274.97
2023-04-13T03:17:48.857Z,99289.53
2023-04-13T03:20:23.960Z,99290.19
2023-04-13T03:22:58.922Z,99277.50
2023-04-13T03:25:33.648Z,99281.03
2023-04-13T03:28:04.733Z,99254.69
2023-04-13T03:30:42.560Z,99241.94
2023-04-13T03:33:12.501Z,99242.88
2023-04-13T03:35:42.770Z,99276.78
2023-04-13T03:38:21.307Z,99254.00
2023-04-13T03:40:51.908Z,99276.78
2023-04-13T03:43:21.832Z,99277.69
2023-04-13T03:46:04.348Z,99271.75
2023-04-13T03:48:35.102Z,99271.78
2023-04-13T03:51:07.903Z,99254.75
2023-04-13T03:53:49.738Z,99276.00
2023-04-13T03:56:24.354Z,99254.78
2023-04-13T03:58:54.481Z,99263.25
2023-04-13T04:01:30.598Z,99263.34
2023-04-13T04:04:00.778Z,99267.56
2023-04-13T04:06:32.769Z,99225.03
2023-04-13T04:09:13.566Z,99254.13
2023-04-13T04:11:47.484Z,99254.09
2023-04-13T04:14:22.634Z,99253.28
2023-04-13T04:17:04.182Z,99259.91
2023-04-13T04:19:35.536Z,99251.47
2023-04-13T04:22:05.724Z,99260.09
2023-04-13T04:24:39.462Z,99250.69
2023-04-13T04:27:09.226Z,99264.34
2023-04-13T04:29:39.009Z,99258.41
2023-04-13T04:32:24.708Z,99256.78
2023-04-13T04:34:56.725Z,99241.41
2023-04-13T04:37:28.142Z,99250.81
2023-04-13T04:40:08.278Z,99253.47
2023-04-13T04:42:38.213Z,99208.44
2023-04-13T04:45:14.391Z,99250.91
2023-04-13T04:47:50.608Z,99261.06
2023-04-13T04:50:24.063Z,99239.75
2023-04-13T04:53:00.016Z,99260.94
2023-04-13T04:55:29.972Z,99255.75
2023-04-13T04:58:00.565Z,99261.88
2023-04-13T05:00:31.654Z,99273.88
2023-04-13T05:03:20.808Z,99226.19
2023-04-13T05:05:56.709Z,99267.00
2023-04-13T05:08:32.324Z,99291.59
2023-04-13T05:11:03.604Z,99264.56
2023-04-13T05:13:33.422Z,99275.63
2023-04-13T05:16:14.052Z,99275.56
2023-04-13T05:18:50.714Z,99291.72
2023-04-13T05:21:43.388Z,99270.53
2023-04-13T05:24:13.626Z,99287.56
2023-04-13T05:26:45.436Z,99266.13
2023-04-13T05:29:19.710Z,99290.00
2023-04-13T05:31:50.273Z,99291.72
2023-04-13T05:34:23.528Z,99290.84
2023-04-13T05:37:05.535Z,99273.03
2023-04-13T05:39:35.496Z,99295.84
2023-04-13T05:42:05.359Z,99289.78
2023-04-13T05:44:40.145Z,99306.00
2023-04-13T05:47:09.954Z,99318.72
2023-04-13T05:49:42.698Z,99328.09
2023-04-13T05:52:13.439Z,99314.34
2023-04-13T05:54:50.132Z,99330.53
2023-04-13T05:57:22.549Z,99330.69
2023-04-13T05:59:54.790Z,99321.31
2023-04-13T06:02:29.457Z,99298.25
2023-04-13T06:05:02.280Z,99334.13
2023-04-13T06:07:32.574Z,99337.56
2023-04-13T06:10:03.112Z,99349.44
2023-04-13T06:12:33.775Z,99336.69
2023-04-13T06:15:05.211Z,99325.56
2023-04-13T06:17:35.002Z,99334.22
2023-04-13T06:20:10.886Z,99338.50
2023-04-13T06:22:40.752Z,99346.16
2023-04-13T06:25:12.289Z,99351.25
2023-04-13T06:27:43.655Z,99342.88
2023-04-13T06:30:15.027Z,99352.97
2023-04-13T06:32:45.274Z,99359.91
2023-04-13T06:35:20.941Z,99340.41
2023-04-13T06:37:52.335Z,99333.59
2023-04-13T06:40:28.318Z,99358.25
2023-04-13T06:43:07.363Z,99364.22
2023-04-13T06:45:47.090Z,99369.28
2023-04-13T06:48:23.009Z,99364.06
2023-04-13T06:51:01.903Z,99385.34
2023-04-13T06:53:34.380Z,99381.94
2023-04-13T06:56:04.167Z,99397.25
2023-04-13T06:58:34.658Z,99372.56
2023-04-13T07:01:04.513Z,99391.22
2023-04-13T07:03:36.971Z,99398.88
2023-04-13T07:06:11.800Z,99410.72
2023-04-13T07:08:42.818Z,99420.00
2023-04-13T07:11:13.529Z,99420.88
2023-04-13T07:13:44.881Z,99419.97
2023-04-13T07:16:17.117Z,99415.69
2023-04-13T07:18:50.229Z,99430.16
2023-04-13T07:21:22.607Z,99429.31
2023-04-13T07:24:04.451Z,99437.84
2023-04-13T07:26:35.670Z,99446.22
2023-04-13T07:29:12.281Z,99443.75
2023-04-13T07:31:43.881Z,99443.81
2023-04-13T07:34:14.665Z,99431.78
2023-04-13T07:36:50.931Z,99456.47
2023-04-13T07:39:23.744Z,99454.66
2023-04-13T07:41:56.706Z,99457.97
2023-04-13T07:44:35.135Z,99458.16
2023-04-13T07:47:05.568Z,99436.97
2023-04-13T07:49:36.487Z,99450.59
2023-04-13T07:52:12.388Z,99448.91
2023-04-13T07:54:43.317Z,99477.88
2023-04-13T07:57:14.819Z,99434.59
2023-04-13T07:59:49.842Z,99462.72
2023-04-13T08:02:20.736Z,99482.16
2023-04-13T08:04:53.784Z,99478.84
2023-04-13T08:07:32.145Z,99479.91
2023-04-13T08:10:04.357Z,99470.66
2023-04-13T08:12:34.261Z,99495.38
2023-04-13T08:15:04.019Z,99506.44
2023-04-13T08:17:34.117Z,99492.00
2023-04-13T08:20:06.270Z,99495.50
2023-04-13T08:22:39.550Z,99517.63
2023-04-13T08:25:10.351Z,99521.94
2023-04-13T08:27:40.789Z,99508.25
2023-04-13T08:30:14.671Z,99525.25
2023-04-13T08:32:58.149Z,99523.63
2023-04-13T08:35:28.454Z,99529.56
2023-04-13T08:38:01.397Z,99538.06
2023-04-13T08:40:31.503Z,99533.63
2023-04-13T08:43:03.373Z,99545.53
2023-04-13T08:45:35.000Z,99558.28
2023-04-13T08:48:05.402Z,99554.00
2023-04-13T08:50:39.694Z,99568.47
2023-04-13T08:53:14.194Z,99560.75
2023-04-13T08:55:47.613Z,99576.06
2023-04-13T08:58:23.515Z,99573.50
2023-04-13T09:00:53.690Z,99571.06
2023-04-13T09:03:29.014Z,99583.88
2023-04-13T09:06:02.109Z,99574.59
2023-04-13T09:08:37.420Z,99569.56
2023-04-13T09:11:10.824Z,99588.31
2023-04-13T09:13:40.586Z,99568.78
2023-04-13T09:16:12.157Z,99576.41
2023-04-13T09:18:55.704Z,99576.44
2023-04-13T09:21:25.941Z,99581.63
2023-04-13T09:23:59.604Z,99570.53
2023-04-13T09:26:29.367Z,99565.44
2023-04-13T09:28:59.928Z,99572.22
2023-04-13T09:31:30.429Z,99590.13
2023-04-13T09:34:00.410Z,99586.72
2023-04-13T09:36:32.729Z,99564.56
2023-04-13T09:39:06.512Z,99584.16
2023-04-13T09:41:37.581Z,99583.28
2023-04-13T09:44:20.385Z,99596.91
2023-04-13T09:47:00.301Z,99596.91
2023-04-13T09:49:40.105Z,99564.56
2023-04-13T09:52:10.304Z,99578.19
2023-04-13T09:54:42.948Z,99554.38
2023-04-13T09:57:12.768Z,99590.13
2023-04-13T09:59:42.554Z,99557.78
2023-04-13T10:02:13.057Z,99610.47
2023-04-13T10:04:43.992Z,99600.19
2023-04-13T10:07:13.787Z,99598.50
2023-04-13T10:09:46.182Z,99617.25
2023-04-13T10:12:19.468Z,99604.50
2023-04-13T10:14:51.699Z,99621.53
2023-04-13T10:17:34.551Z,99630.91
2023-04-13T10:20:12.903Z,99616.47
2023-04-13T10:22:45.970Z,99625.81
2023-04-13T10:25:32.073Z,99636.94
2023-04-13T10:28:03.738Z,99590.94
2023-04-13T10:30:33.828Z,99639.47
2023-04-13T10:33:08.352Z,99642.00
2023-04-13T10:35:43.421Z,99645.38
2023-04-13T10:38:15.352Z,99652.19
2023-04-13T10:40:49.901Z,99655.63
2023-04-13T10:43:29.576Z,99653.13
2023-04-13T10:46:09.896Z,99642.88
2023-04-13T10:48:40.107Z,99670.94
2023-04-13T10:51:10.135Z,99672.66
2023-04-13T10:53:39.881Z,99673.53
2023-04-13T10:56:20.991Z,99673.53
2023-04-13T10:58:56.880Z,99654.81
2023-04-13T11:01:27.782Z,99663.31
2023-04-13T11:04:05.315Z,99683.75
2023-04-13T11:06:41.280Z,99683.75
2023-04-13T11:09:13.179Z,99699.09
2023-04-13T11:11:54.386Z,99715.25
2023-04-13T11:14:24.456Z,99710.13
2023-04-13T11:16:58.417Z,99715.19
2023-04-13T11:19:28.445Z,99713.50
2023-04-13T11:21:59.843Z,99725.47
2023-04-13T11:24:30.094Z,99733.97
2023-04-13T11:27:02.533Z,99719.50
2023-04-13T11:29:32.434Z,99719.50
2023-04-13T11:32:02.292Z,99733.97
2023-04-13T11:34:33.209Z,99715.25
2023-04-13T11:37:05.828Z,99731.47
2023-04-13T11:39:39.005Z,99729.72
2023-04-13T11:42:11.620Z,99746.78
2023-04-13T11:44:45.715Z,99731.47
2023-04-13T11:47:18.453Z,99742.50
2023-04-13T11:49:48.612Z,99756.16
2023-04-13T11:52:18.724Z,99738.22
2023-04-13T11:54:49.309Z,99745.84
2023-04-13T11:57:22.256Z,99721.13
2023-04-13T11:59:54.266Z,99732.22
2023-04-13T12:02:29.799Z,99739.06
2023-04-13T12:05:00.889Z,99721.06
2023-04-13T12:07:31.309Z,99731.31
2023-04-13T12:10:05.693Z,99739.88
2023-04-13T12:15:34.017Z,99732.25
2023-04-13T12:18:14.349Z,99751.84
2023-04-13T12:20:46.901Z,99752.72
2023-04-13T12:23:23.318Z,99734.81
2023-04-13T12:25:58.122Z,99753.59
2023-04-13T12:28:38.297Z,99761.25
2023-04-13T12:31:10.180Z,99756.16
2023-04-13T12:33:40.037Z,99739.09
2023-04-13T12:36:11.603Z,99755.31
2023-04-13T12:38:41.426Z,99768.09
2023-04-13T12:41:12.674Z,99756.16
2023-04-13T12:43:45.206Z,99750.16
2023-04-13T12:46:15.051Z,99768.06
2023-04-13T12:48:44.956Z,99751.88
2023-04-13T12:51:15.027Z,99772.28
2023-04-13T12:53:45.606Z,99770.56
2023-04-13T12:56:16.152Z,99755.22
2023-04-13T12:58:48.646Z,99776.53
2023-04-13T13:01:18.604Z,99769.75
2023-04-13T13:03:48.471Z,99787.66
2023-04-13T13:06:18.279Z,99786.75
2023-04-13T13:08:48.039Z,99768.91
2023-04-13T13:11:17.823Z,99804.69
2023-04-13T13:13:50.187Z,99803.88
2023-04-13T13:16:19.985Z,99814.06
2023-04-13T13:19:00.836Z,99801.25
2023-04-13T13:21:31.551Z,99768.03
2023-04-13T13:24:01.394Z,99821.78
2023-04-13T13:26:40.941Z,99822.47
2023-04-13T13:29:18.133Z,99818.28
2023-04-13T13:31:48.007Z,99808.03
2023-04-13T13:34:17.788Z,99819.97
2023-04-13T13:36:47.608Z,99831.88
2023-04-13T13:39:17.459Z,99825.09
2023-04-13T13:41:47.360Z,99833.59
2023-04-13T13:44:19.758Z,99851.59
2023-04-13T13:46:49.564Z,99793.66
2023-04-13T13:49:22.007Z,99862.69
2023-04-13T13:52:12.854Z,99867.84
2023-04-13T13:54:50.403Z,99835.44
2023-04-13T13:57:20.288Z,99874.63
2023-04-13T13:59:52.654Z,99863.56
2023-04-13T14:02:23.341Z,99834.56
2023-04-13T14:04:53.254Z,99862.72
2023-04-13T14:07:23.511Z,99872.09
2023-04-13T14:09:53.302Z,99866.94
2023-04-13T14:12:23.136Z,99877.09
2023-04-13T14:14:55.786Z,99885.56
2023-04-13T14:17:25.736Z,99882.09
2023-04-13T14:19:55.558Z,99864.13
2023-04-13T14:22:25.379Z,99867.44
2023-04-13T14:24:55.642Z,99863.97
2023-04-13T14:27:25.820Z,99867.31
2023-04-13T14:29:58.161Z,99880.91
2023-04-13T14:32:28.011Z,99869.81
2023-04-13T14:34:59.387Z,99874.03
2023-04-13T14:37:29.762Z,99869.97
2023-04-13T14:39:59.525Z,99885.44
2023-04-13T14:42:30.923Z,99891.38
2023-04-13T14:45:04.885Z,99882.81
2023-04-13T14:47:34.734Z,99873.44
2023-04-13T14:50:04.902Z,99890.44
2023-04-13T14:52:34.880Z,99867.41
2023-04-13T14:55:05.716Z,99890.47
2023-04-13T14:57:36.052Z,99901.59
2023-04-13T15:00:15.775Z,99891.44
2023-04-13T15:02:46.054Z,99900.00
2023-04-13T15:05:16.340Z,99918.88
2023-04-13T15:07:46.396Z,99902.72
2023-04-13T15:10:16.526Z,99921.53
2023-04-13T15:12:46.740Z,99924.94
2023-04-13T15:15:19.291Z,99943.66
2023-04-13T15:17:49.086Z,99865.09
2023-04-13T15:20:18.962Z,99953.81
2023-04-13T15:22:48.775Z,99947.84
2023-04-13T15:25:18.736Z,99949.59
2023-04-13T15:27:52.585Z,99961.53
2023-04-13T15:30:31.144Z,99965.84
2023-04-13T15:33:02.783Z,99957.28
2023-04-13T15:35:33.426Z,99974.31
2023-04-13T15:38:04.039Z,99969.19
2023-04-13T15:40:36.383Z,99969.22
2023-04-13T15:43:06.476Z,99989.72
2023-04-13T15:45:38.911Z,99998.25
2023-04-13T15:48:08.830Z,100000.78
2023-04-13T15:50:38.665Z,99992.28
2023-04-13T15:53:08.764Z,100000.81
2023-04-13T15:55:38.557Z,99991.41
2023-04-13T15:58:08.687Z,100000.81
2023-04-13T16:00:41.083Z,100022.97
2023-04-13T16:03:11.013Z,99999.06
2023-04-13T16:05:40.993Z,100050.25
2023-04-13T16:08:10.891Z,100038.31
2023-04-13T16:10:41.724Z,100016.97
2023-04-13T16:13:19.682Z,100012.69
2023-04-13T16:15:57.436Z,99968.34
2023-04-13T16:18:28.971Z,100041.78
2023-04-13T16:21:02.498Z,100038.38
2023-04-13T16:23:33.574Z,100040.94
2023-04-13T16:26:03.860Z,100055.44
2023-04-13T16:28:34.675Z,100036.69
2023-04-13T16:31:11.341Z,100040.00
2023-04-13T16:33:41.213Z,100052.78
2023-04-13T16:36:12.469Z,100018.59
2023-04-13T16:38:43.944Z,100073.28
2023-04-13T16:41:13.766Z,100079.31
2023-04-13T16:43:43.577Z,100069.09
2023-04-13T16:46:16.474Z,100069.97
2023-04-13T16:48:46.239Z,100064.81
2023-04-13T16:51:16.226Z,100075.09
2023-04-13T16:53:46.295Z,100068.28
2023-04-13T16:56:17.175Z,100065.75
2023-04-13T16:58:47.161Z,100056.31
2023-04-13T17:01:19.641Z,100076.84
2023-04-13T17:03:49.534Z,100085.38
2023-04-13T17:06:19.440Z,100054.63
2023-04-13T17:08:49.232Z,100082.81
2023-04-13T17:11:19.079Z,100082.81
2023-04-13T17:13:49.234Z,100089.63
2023-04-13T17:16:21.680Z,100090.50
2023-04-13T17:18:51.908Z,100088.78
2023-04-13T17:21:21.719Z,100095.59
2023-04-13T17:23:51.519Z,100084.50
2023-04-13T17:26:21.594Z,100074.25
2023-04-13T17:28:51.392Z,100043.53
2023-04-13T17:31:23.791Z,100088.78
2023-04-13T17:33:53.650Z,100094.75
2023-04-13T17:36:24.470Z,100110.09
2023-04-13T17:38:54.266Z,100095.53
2023-04-13T17:41:24.069Z,100105.75
2023-04-13T17:43:53.837Z,100066.38
2023-04-13T17:46:26.468Z,100076.63
2023-04-13T17:48:56.409Z,100118.56
2023-04-13T17:51:26.538Z,100119.41
2023-04-13T17:53:56.352Z,100116.81
2023-04-13T17:56:26.277Z,100133.88
2023-04-13T17:58:56.157Z,100115.03
2023-04-13T18:01:29.281Z,100133.81
2023-04-13T18:03:59.334Z,100144.84
2023-04-13T18:06:30.628Z,100136.31
2023-04-13T18:09:00.976Z,100125.16
2023-04-13T18:11:31.066Z,100120.88
2023-04-13T18:14:01.020Z,100135.25
2023-04-13T18:16:34.437Z,100145.47
2023-04-13T18:19:04.364Z,100138.53
2023-04-13T18:21:34.136Z,100137.66
2023-04-13T18:24:03.959Z,100124.81
2023-04-13T18:26:33.751Z,100140.19
2023-04-13T18:29:03.559Z,100131.56
2023-04-13T18:31:36.056Z,100136.66
2023-04-13T18:34:07.384Z,100156.97
2023-04-13T18:36:37.243Z,100139.81
2023-04-13T18:39:07.766Z,100169.63
2023-04-13T18:41:39.048Z,100167.94
2023-04-13T18:44:10.848Z,100169.63
2023-04-13T18:46:43.886Z,100178.25
2023-04-13T18:49:13.812Z,100164.44
2023-04-13T18:51:44.045Z,100175.56
2023-04-13T18:54:13.838Z,100193.53
2023-04-13T18:56:43.640Z,100180.53
2023-04-13T18:59:13.424Z,100209.59
2023-04-13T19:01:46.021Z,100218.03
2023-04-13T19:04:16.099Z,100230.72
2023-04-13T19:06:45.968Z,100210.88
2023-04-13T19:09:15.736Z,100190.06
2023-04-13T19:11:50.268Z,100230.97
2023-04-13T19:14:20.308Z,100249.25
2023-04-13T19:16:53.227Z,100256.66
2023-04-13T19:19:23.075Z,100245.31
2023-04-13T19:21:55.596Z,100256.53
2023-04-13T19:24:26.041Z,100251.41
2023-04-13T19:26:56.643Z,100258.34
2023-04-13T19:29:30.349Z,100249.09
2023-04-13T19:32:02.768Z,100261.94
2023-04-13T19:34:35.110Z,100240.41
2023-04-13T19:37:04.971Z,100270.44
2023-04-13T19:39:34.861Z,100251.53
2023-04-13T19:42:04.672Z,100273.63
2023-04-13T19:44:34.549Z,100277.00
2023-04-13T19:47:06.913Z,100277.13
2023-04-13T19:49:36.697Z,100270.28
2023-04-13T19:52:06.736Z,100281.44
2023-04-13T19:54:36.578Z,100255.72
2023-04-13T19:57:06.511Z,100260.56
2023-04-13T19:59:36.287Z,100268.66
2023-04-13T20:02:08.651Z,100280.50
2023-04-13T20:04:40.366Z,100279.69
2023-04-13T20:07:10.619Z,100286.44
2023-04-13T20:09:40.680Z,100276.88
2023-04-13T20:12:10.587Z,100275.81
2023-04-13T20:14:42.285Z,100268.88
2023-04-13T20:17:16.366Z,100270.78
2023-04-13T20:19:46.198Z,100284.19
2023-04-13T20:22:18.362Z,100290.06
2023-04-13T20:24:48.205Z,100289.28
2023-04-13T20:27:18.010Z,100293.59
2023-04-13T20:29:48.016Z,100279.75
2023-04-13T20:32:20.581Z,100299.47
2023-04-13T20:34:50.332Z,100299.47
2023-04-13T20:37:20.114Z,100302.13
2023-04-13T20:39:53.136Z,100320.84
2023-04-13T20:42:23.883Z,100313.00
2023-04-13T20:44:57.945Z,100323.97
2023-04-13T20:47:31.618Z,100319.75
2023-04-13T20:50:01.404Z,100290.41
2023-04-13T20:52:31.467Z,100306.59
2023-04-13T20:55:01.223Z,100314.88
2023-04-13T20:57:31.024Z,100313.06
2023-04-13T21:00:01.730Z,100314.66
2023-04-13T21:02:34.534Z,100303.53
2023-04-13T21:05:04.926Z,100306.59
2023-04-13T21:07:34.877Z,100316.09
2023-04-13T21:10:04.670Z,100302.44
2023-04-13T21:12:34.424Z,100311.16
2023-04-13T21:15:04.320Z,100287.03
2023-04-13T21:17:36.775Z,100298.56
2023-04-13T21:20:09.225Z,100277.16
2023-04-13T21:22:39.400Z,100283.72
2023-04-13T21:25:09.980Z,100292.22
2023-04-13T21:27:39.892Z,100278.47
2023-04-13T21:30:11.139Z,100297.47
2023-04-13T21:32:43.544Z,100296.00
2023-04-13T21:35:15.332Z,100290.84
2023-04-13T21:37:45.104Z,100295.66
2023-04-13T21:40:16.316Z,100309.13
2023-04-13T21:42:46.087Z,100314.13
2023-04-13T21:45:16.452Z,100308.16
2023-04-13T21:47:49.237Z,100309.22
2023-04-13T21:50:19.066Z,100303.91
2023-04-13T21:52:48.874Z,100304.00
2023-04-13T21:55:20.522Z,100291.13
2023-04-13T21:57:51.319Z,100305.69
2023-04-13T22:00:21.310Z,100316.69
2023-04-13T22:02:55.614Z,100311.25
2023-04-13T22:05:25.536Z,100321.28
2023-04-13T22:07:55.312Z,100320.25
2023-04-13T22:10:25.445Z,100312.94
2023-04-13T22:12:55.233Z,100309.22
2023-04-13T22:15:25.094Z,100321.53
2023-04-13T22:17:57.475Z,100320.63
2023-04-13T22:20:27.223Z,100331.91
2023-04-13T22:22:57.031Z,100300.72
2023-04-13T22:25:28.125Z,100312.94
2023-04-13T22:27:57.979Z,100328.50
2023-04-13T22:30:29.094Z,100328.50
2023-04-13T22:33:01.511Z,100333.63
2023-04-13T22:35:31.361Z,100336.78
2023-04-13T22:38:01.111Z,100348.66
2023-04-13T22:40:31.255Z,100338.31
2023-04-13T22:43:01.005Z,100343.56
2023-04-13T22:45:30.920Z,100340.13
2023-04-13T22:48:03.380Z,100337.63
2023-04-13T22:50:33.216Z,100330.31
2023-04-13T22:53:02.995Z,100360.25
2023-04-13T22:55:32.825Z,100351.22
2023-04-13T22:58:02.561Z,100357.59
2023-04-13T23:00:32.295Z,100366.81
2023-04-13T23:03:05.012Z,100360.50
2023-04-13T23:05:36.360Z,100372.53
2023-04-13T23:08:06.403Z,100341.66
2023-04-13T23:10:36.278Z,100355.38
2023-04-13T23:13:06.718Z,100370.66
2023-04-13T23:15:36.492Z,100376.69
2023-04-13T23:18:09.005Z,100371.06
2023-04-13T23:20:38.777Z,100351.06
2023-04-13T23:23:08.562Z,100373.53
2023-04-13T23:25:38.393Z,100371.00
2023-04-13T23:28:08.221Z,100375.41
2023-04-13T23:30:37.978Z,100353.81
2023-04-13T23:33:10.326Z,100377.88
2023-04-13T23:35:40.139Z,100366.47
2023-04-13T23:38:09.901Z,100370.56
2023-04-13T23:40:39.637Z,100361.00
2023-04-13T23:43:09.368Z,100359.19
2023-04-13T23:45:39.349Z,100368.53
2023-04-13T23:48:11.932Z,100368.41
2023-04-13T23:50:42.027Z,100361.13
2023-04-13T23:53:12.210Z,100378.59
2023-04-13T23:55:42.054Z,100320.94
2023-04-13T23:58:11.819Z,100332.19
